sensor_id;sensor_type;location;lat;lon;timestamp;temperature;humidity
69901;DHT22;57183;50.930;5.406;2023-06-22T00:02:13;21.40;99.90
69901;DHT22;57183;50.930;5.406;2023-06-22T00:04:39;21.30;99.90
69901;DHT22;57183;50.930;5.406;2023-06-22T00:07:05;21.30;99.90
69901;DHT22;57183;50.930;5.406;2023-06-22T00:09:31;21.20;99.90
69901;DHT22;57183;50.930;5.406;2023-06-22T00:11:57;21.20;99.90
69901;DHT22;57183;50.930;5.406;2023-06-22T00:14:23;21.20;99.90
69901;DHT22;57183;50.930;5.406;2023-06-22T00:16:49;21.20;99.90
69901;DHT22;57183;50.930;5.406;2023-06-22T00:19:17;21.20;99.90
69901;DHT22;57183;50.930;5.406;2023-06-22T00:21:44;21.20;99.90
69901;DHT22;57183;50.930;5.406;2023-06-22T00:24:12;21.20;99.90
69901;DHT22;57183;50.930;5.406;2023-06-22T00:26:38;21.20;99.90
69901;DHT22;57183;50.930;5.406;2023-06-22T00:29:04;21.20;99.90
69901;DHT22;57183;50.930;5.406;2023-06-22T00:31:29;21.20;99.90
69901;DHT22;57183;50.930;5.406;2023-06-22T00:33:55;21.20;99.90
69901;DHT22;57183;50.930;5.406;2023-06-22T00:36:21;21.20;99.90
69901;DHT22;57183;50.930;5.406;2023-06-22T00:38:46;21.20;99.90
69901;DHT22;57183;50.930;5.406;2023-06-22T00:41:12;21.10;99.90
69901;DHT22;57183;50.930;5.406;2023-06-22T00:43:38;21.00;99.90
69901;DHT22;57183;50.930;5.406;2023-06-22T00:46:03;21.00;99.90
69901;DHT22;57183;50.930;5.406;2023-06-22T00:48:29;21.10;99.90
69901;DHT22;57183;50.930;5.406;2023-06-22T00:50:54;21.00;99.90
69901;DHT22;57183;50.930;5.406;2023-06-22T00:53:21;21.00;99.90
69901;DHT22;57183;50.930;5.406;2023-06-22T00:55:48;21.00;99.90
69901;DHT22;57183;50.930;5.406;2023-06-22T00:58:17;21.00;99.90
69901;DHT22;57183;50.930;5.406;2023-06-22T01:00:47;21.10;99.90
69901;DHT22;57183;50.930;5.406;2023-06-22T01:03:14;21.10;99.90
69901;DHT22;57183;50.930;5.406;2023-06-22T01:05:40;21.00;99.90
69901;DHT22;57183;50.930;5.406;2023-06-22T01:16:15;21.00;99.90
69901;DHT22;57183;50.930;5.406;2023-06-22T01:18:43;21.20;99.90
69901;DHT22;57183;50.930;5.406;2023-06-22T01:21:14;21.20;99.90
69901;DHT22;57183;50.930;5.406;2023-06-22T01:24:02;21.30;99.90
69901;DHT22;57183;50.930;5.406;2023-06-22T01:26:43;21.20;99.90
69901;DHT22;57183;50.930;5.406;2023-06-22T01:29:12;21.20;99.90
69901;DHT22;57183;50.930;5.406;2023-06-22T01:31:40;21.00;99.90
69901;DHT22;57183;50.930;5.406;2023-06-22T01:34:08;20.90;99.90
69901;DHT22;57183;50.930;5.406;2023-06-22T01:36:35;21.00;99.90
69901;DHT22;57183;50.930;5.406;2023-06-22T01:39:03;21.00;99.90
69901;DHT22;57183;50.930;5.406;2023-06-22T01:41:33;21.00;99.90
69901;DHT22;57183;50.930;5.406;2023-06-22T01:44:00;20.90;99.90
69901;DHT22;57183;50.930;5.406;2023-06-22T01:46:26;20.80;99.90
69901;DHT22;57183;50.930;5.406;2023-06-22T01:48:52;20.80;99.90
69901;DHT22;57183;50.930;5.406;2023-06-22T01:51:18;20.70;99.90
69901;DHT22;57183;50.930;5.406;2023-06-22T01:53:44;20.70;99.90
69901;DHT22;57183;50.930;5.406;2023-06-22T01:56:10;20.70;99.90
69901;DHT22;57183;50.930;5.406;2023-06-22T01:58:38;20.70;99.90
69901;DHT22;57183;50.930;5.406;2023-06-22T02:01:11;20.70;99.90
69901;DHT22;57183;50.930;5.406;2023-06-22T02:03:44;20.70;99.90
69901;DHT22;57183;50.930;5.406;2023-06-22T02:06:20;20.60;99.90
69901;DHT22;57183;50.930;5.406;2023-06-22T02:08:51;20.60;99.90
69901;DHT22;57183;50.930;5.406;2023-06-22T02:11:20;20.50;99.90
69901;DHT22;57183;50.930;5.406;2023-06-22T02:13:47;20.50;99.90
69901;DHT22;57183;50.930;5.406;2023-06-22T02:16:14;20.60;99.90
69901;DHT22;57183;50.930;5.406;2023-06-22T02:18:51;20.60;99.90
69901;DHT22;57183;50.930;5.406;2023-06-22T02:21:20;20.60;99.90
69901;DHT22;57183;50.930;5.406;2023-06-22T02:23:47;20.80;99.90
69901;DHT22;57183;50.930;5.406;2023-06-22T02:26:13;21.10;99.90
69901;DHT22;57183;50.930;5.406;2023-06-22T02:28:38;21.20;99.90
69901;DHT22;57183;50.930;5.406;2023-06-22T02:31:04;21.30;99.90
69901;DHT22;57183;50.930;5.406;2023-06-22T02:33:30;21.30;99.90
69901;DHT22;57183;50.930;5.406;2023-06-22T02:35:56;21.30;99.90
69901;DHT22;57183;50.930;5.406;2023-06-22T02:38:21;21.30;99.90
69901;DHT22;57183;50.930;5.406;2023-06-22T02:40:50;21.30;99.90
69901;DHT22;57183;50.930;5.406;2023-06-22T02:43:15;21.30;99.90
69901;DHT22;57183;50.930;5.406;2023-06-22T02:45:41;21.30;99.90
69901;DHT22;57183;50.930;5.406;2023-06-22T02:48:07;21.30;99.90
69901;DHT22;57183;50.930;5.406;2023-06-22T02:50:33;21.40;99.90
69901;DHT22;57183;50.930;5.406;2023-06-22T02:52:58;21.30;99.90
69901;DHT22;57183;50.930;5.406;2023-06-22T02:55:24;21.30;99.90
69901;DHT22;57183;50.930;5.406;2023-06-22T02:57:49;21.30;99.90
69901;DHT22;57183;50.930;5.406;2023-06-22T03:00:18;21.30;99.90
69901;DHT22;57183;50.930;5.406;2023-06-22T03:02:48;21.10;99.90
69901;DHT22;57183;50.930;5.406;2023-06-22T03:05:14;21.10;99.90
69901;DHT22;57183;50.930;5.406;2023-06-22T03:07:43;21.00;99.90
69901;DHT22;57183;50.930;5.406;2023-06-22T03:10:10;21.00;99.90
69901;DHT22;57183;50.930;5.406;2023-06-22T03:12:37;21.10;99.90
69901;DHT22;57183;50.930;5.406;2023-06-22T03:15:05;21.20;99.90
69901;DHT22;57183;50.930;5.406;2023-06-22T03:17:30;21.20;99.90
69901;DHT22;57183;50.930;5.406;2023-06-22T03:19:56;21.20;99.90
69901;DHT22;57183;50.930;5.406;2023-06-22T03:22:22;21.20;99.90
69901;DHT22;57183;50.930;5.406;2023-06-22T03:24:47;21.10;99.90
69901;DHT22;57183;50.930;5.406;2023-06-22T03:27:13;21.00;99.90
69901;DHT22;57183;50.930;5.406;2023-06-22T03:29:38;20.90;99.90
69901;DHT22;57183;50.930;5.406;2023-06-22T03:32:04;20.90;99.90
69901;DHT22;57183;50.930;5.406;2023-06-22T03:34:31;21.00;99.90
69901;DHT22;57183;50.930;5.406;2023-06-22T03:36:59;21.00;99.90
69901;DHT22;57183;50.930;5.406;2023-06-22T03:39:24;21.00;99.90
69901;DHT22;57183;50.930;5.406;2023-06-22T03:41:50;21.20;99.90
69901;DHT22;57183;50.930;5.406;2023-06-22T03:44:15;21.20;99.90
69901;DHT22;57183;50.930;5.406;2023-06-22T03:46:41;21.10;99.90
69901;DHT22;57183;50.930;5.406;2023-06-22T03:49:07;21.10;99.90
69901;DHT22;57183;50.930;5.406;2023-06-22T03:51:33;21.10;99.90
69901;DHT22;57183;50.930;5.406;2023-06-22T03:53:58;21.10;99.90
69901;DHT22;57183;50.930;5.406;2023-06-22T03:56:24;21.20;99.90
69901;DHT22;57183;50.930;5.406;2023-06-22T03:58:49;21.30;99.90
69901;DHT22;57183;50.930;5.406;2023-06-22T04:01:16;21.30;99.90
69901;DHT22;57183;50.930;5.406;2023-06-22T04:03:42;21.40;99.90
69901;DHT22;57183;50.930;5.406;2023-06-22T04:06:08;21.40;99.90
69901;DHT22;57183;50.930;5.406;2023-06-22T04:08:34;21.50;99.90
69901;DHT22;57183;50.930;5.406;2023-06-22T04:11:00;21.50;99.90
69901;DHT22;57183;50.930;5.406;2023-06-22T04:13:25;21.50;99.90
69901;DHT22;57183;50.930;5.406;2023-06-22T04:15:51;21.40;99.90
69901;DHT22;57183;50.930;5.406;2023-06-22T04:18:17;21.40;99.90
69901;DHT22;57183;50.930;5.406;2023-06-22T04:20:42;21.60;99.90
69901;DHT22;57183;50.930;5.406;2023-06-22T04:23:10;21.70;99.90
69901;DHT22;57183;50.930;5.406;2023-06-22T04:25:35;21.70;99.90
69901;DHT22;57183;50.930;5.406;2023-06-22T04:28:01;21.80;99.90
69901;DHT22;57183;50.930;5.406;2023-06-22T04:30:28;21.80;99.90
69901;DHT22;57183;50.930;5.406;2023-06-22T04:32:57;21.70;99.90
69901;DHT22;57183;50.930;5.406;2023-06-22T04:35:24;21.70;99.90
69901;DHT22;57183;50.930;5.406;2023-06-22T04:37:50;21.60;99.90
69901;DHT22;57183;50.930;5.406;2023-06-22T04:40:15;21.70;99.90
69901;DHT22;57183;50.930;5.406;2023-06-22T04:42:41;21.70;99.90
69901;DHT22;57183;50.930;5.406;2023-06-22T04:45:17;21.40;99.90
69901;DHT22;57183;50.930;5.406;2023-06-22T04:47:43;21.30;99.90
69901;DHT22;57183;50.930;5.406;2023-06-22T04:50:11;21.10;99.90
69901;DHT22;57183;50.930;5.406;2023-06-22T04:52:37;20.70;99.90
69901;DHT22;57183;50.930;5.406;2023-06-22T04:55:03;20.30;99.90
69901;DHT22;57183;50.930;5.406;2023-06-22T04:57:29;20.10;99.90
69901;DHT22;57183;50.930;5.406;2023-06-22T05:00:01;19.90;99.90
69901;DHT22;57183;50.930;5.406;2023-06-22T05:02:42;19.80;99.90
69901;DHT22;57183;50.930;5.406;2023-06-22T05:05:08;19.80;99.90
69901;DHT22;57183;50.930;5.406;2023-06-22T05:07:34;19.80;99.90
69901;DHT22;57183;50.930;5.406;2023-06-22T05:10:04;19.80;99.90
69901;DHT22;57183;50.930;5.406;2023-06-22T05:12:30;19.80;99.90
69901;DHT22;57183;50.930;5.406;2023-06-22T05:14:56;19.70;99.90
69901;DHT22;57183;50.930;5.406;2023-06-22T05:17:22;19.60;99.90
69901;DHT22;57183;50.930;5.406;2023-06-22T05:19:48;19.50;99.90
69901;DHT22;57183;50.930;5.406;2023-06-22T05:22:17;19.60;99.90
69901;DHT22;57183;50.930;5.406;2023-06-22T05:24:43;19.50;99.90
69901;DHT22;57183;50.930;5.406;2023-06-22T05:27:09;19.50;99.90
69901;DHT22;57183;50.930;5.406;2023-06-22T05:29:36;19.50;99.90
69901;DHT22;57183;50.930;5.406;2023-06-22T05:32:02;19.50;99.90
69901;DHT22;57183;50.930;5.406;2023-06-22T05:34:27;19.60;99.90
69901;DHT22;57183;50.930;5.406;2023-06-22T05:36:53;19.60;99.90
69901;DHT22;57183;50.930;5.406;2023-06-22T05:39:19;19.50;99.90
69901;DHT22;57183;50.930;5.406;2023-06-22T05:41:45;19.40;99.90
69901;DHT22;57183;50.930;5.406;2023-06-22T05:44:11;19.40;99.90
69901;DHT22;57183;50.930;5.406;2023-06-22T05:46:40;19.60;99.90
69901;DHT22;57183;50.930;5.406;2023-06-22T05:49:10;19.70;99.90
69901;DHT22;57183;50.930;5.406;2023-06-22T05:51:35;19.80;99.90
69901;DHT22;57183;50.930;5.406;2023-06-22T05:54:01;19.80;99.90
69901;DHT22;57183;50.930;5.406;2023-06-22T05:56:27;19.70;99.90
69901;DHT22;57183;50.930;5.406;2023-06-22T05:58:52;19.90;99.90
69901;DHT22;57183;50.930;5.406;2023-06-22T06:01:18;19.80;99.90
69901;DHT22;57183;50.930;5.406;2023-06-22T06:03:44;19.80;99.90
69901;DHT22;57183;50.930;5.406;2023-06-22T06:06:09;19.80;99.90
69901;DHT22;57183;50.930;5.406;2023-06-22T06:08:37;19.80;99.90
69901;DHT22;57183;50.930;5.406;2023-06-22T06:11:02;19.80;99.90
69901;DHT22;57183;50.930;5.406;2023-06-22T06:13:28;19.80;99.90
69901;DHT22;57183;50.930;5.406;2023-06-22T06:15:54;19.80;99.90
69901;DHT22;57183;50.930;5.406;2023-06-22T06:18:22;19.80;99.90
69901;DHT22;57183;50.930;5.406;2023-06-22T06:20:48;20.00;99.90
69901;DHT22;57183;50.930;5.406;2023-06-22T06:23:14;20.10;99.90
69901;DHT22;57183;50.930;5.406;2023-06-22T06:25:39;20.20;99.90
69901;DHT22;57183;50.930;5.406;2023-06-22T06:28:05;20.30;99.90
69901;DHT22;57183;50.930;5.406;2023-06-22T06:30:31;20.40;99.90
69901;DHT22;57183;50.930;5.406;2023-06-22T06:32:57;20.60;99.90
69901;DHT22;57183;50.930;5.406;2023-06-22T06:35:23;20.60;99.90
69901;DHT22;57183;50.930;5.406;2023-06-22T06:37:49;20.70;99.90
69901;DHT22;57183;50.930;5.406;2023-06-22T06:40:17;20.70;99.90
69901;DHT22;57183;50.930;5.406;2023-06-22T06:42:44;20.70;99.90
69901;DHT22;57183;50.930;5.406;2023-06-22T06:45:36;20.70;99.90
69901;DHT22;57183;50.930;5.406;2023-06-22T06:48:02;20.70;99.90
69901;DHT22;57183;50.930;5.406;2023-06-22T06:50:28;20.90;99.90
69901;DHT22;57183;50.930;5.406;2023-06-22T06:52:54;21.00;99.90
69901;DHT22;57183;50.930;5.406;2023-06-22T06:55:20;21.10;99.90
69901;DHT22;57183;50.930;5.406;2023-06-22T06:57:45;21.10;99.90
69901;DHT22;57183;50.930;5.406;2023-06-22T07:00:14;21.20;99.90
69901;DHT22;57183;50.930;5.406;2023-06-22T07:02:42;21.50;99.90
69901;DHT22;57183;50.930;5.406;2023-06-22T07:05:08;21.60;99.90
69901;DHT22;57183;50.930;5.406;2023-06-22T07:07:34;21.80;99.90
69901;DHT22;57183;50.930;5.406;2023-06-22T07:10:00;22.20;99.90
69901;DHT22;57183;50.930;5.406;2023-06-22T07:12:26;22.50;99.90
69901;DHT22;57183;50.930;5.406;2023-06-22T07:15:02;22.90;99.90
69901;DHT22;57183;50.930;5.406;2023-06-22T07:17:28;23.20;99.90
69901;DHT22;57183;50.930;5.406;2023-06-22T07:19:53;23.30;99.90
69901;DHT22;57183;50.930;5.406;2023-06-22T07:22:19;23.50;99.90
69901;DHT22;57183;50.930;5.406;2023-06-22T07:24:44;23.60;99.90
69901;DHT22;57183;50.930;5.406;2023-06-22T07:27:10;23.70;99.90
69901;DHT22;57183;50.930;5.406;2023-06-22T07:29:38;23.60;99.90
69901;DHT22;57183;50.930;5.406;2023-06-22T07:32:06;23.60;99.90
69901;DHT22;57183;50.930;5.406;2023-06-22T07:34:32;23.70;99.90
69901;DHT22;57183;50.930;5.406;2023-06-22T07:36:59;23.60;99.90
69901;DHT22;57183;50.930;5.406;2023-06-22T07:39:24;23.60;99.90
69901;DHT22;57183;50.930;5.406;2023-06-22T07:41:52;23.90;99.90
69901;DHT22;57183;50.930;5.406;2023-06-22T07:44:18;23.80;99.90
69901;DHT22;57183;50.930;5.406;2023-06-22T07:46:43;23.20;99.90
69901;DHT22;57183;50.930;5.406;2023-06-22T07:49:09;23.30;99.90
69901;DHT22;57183;50.930;5.406;2023-06-22T07:51:35;23.50;99.90
69901;DHT22;57183;50.930;5.406;2023-06-22T07:54:00;23.60;99.90
69901;DHT22;57183;50.930;5.406;2023-06-22T07:56:26;23.80;99.90
69901;DHT22;57183;50.930;5.406;2023-06-22T07:58:52;24.00;99.90
69901;DHT22;57183;50.930;5.406;2023-06-22T08:01:18;24.20;99.90
69901;DHT22;57183;50.930;5.406;2023-06-22T08:03:50;24.30;99.90
69901;DHT22;57183;50.930;5.406;2023-06-22T08:06:15;24.00;99.90
69901;DHT22;57183;50.930;5.406;2023-06-22T08:08:42;24.30;99.90
69901;DHT22;57183;50.930;5.406;2023-06-22T08:11:08;24.30;99.90
69901;DHT22;57183;50.930;5.406;2023-06-22T08:13:34;24.50;99.90
69901;DHT22;57183;50.930;5.406;2023-06-22T08:16:00;24.50;99.90
69901;DHT22;57183;50.930;5.406;2023-06-22T08:18:26;24.50;99.90
69901;DHT22;57183;50.930;5.406;2023-06-22T08:20:52;24.60;99.90
69901;DHT22;57183;50.930;5.406;2023-06-22T08:23:18;24.70;99.90
69901;DHT22;57183;50.930;5.406;2023-06-22T08:25:43;24.70;99.90
69901;DHT22;57183;50.930;5.406;2023-06-22T08:28:09;24.90;99.90
69901;DHT22;57183;50.930;5.406;2023-06-22T08:30:35;25.10;99.90
69901;DHT22;57183;50.930;5.406;2023-06-22T08:33:00;25.10;99.90
69901;DHT22;57183;50.930;5.406;2023-06-22T08:35:26;25.10;99.90
69901;DHT22;57183;50.930;5.406;2023-06-22T08:37:51;25.20;99.90
69901;DHT22;57183;50.930;5.406;2023-06-22T08:40:21;25.50;99.90
69901;DHT22;57183;50.930;5.406;2023-06-22T08:42:47;25.40;99.90
69901;DHT22;57183;50.930;5.406;2023-06-22T08:45:13;25.70;99.90
69901;DHT22;57183;50.930;5.406;2023-06-22T08:47:40;25.80;99.90
69901;DHT22;57183;50.930;5.406;2023-06-22T08:50:07;25.90;99.90
69901;DHT22;57183;50.930;5.406;2023-06-22T08:52:34;25.90;99.90
69901;DHT22;57183;50.930;5.406;2023-06-22T08:55:00;25.90;99.90
69901;DHT22;57183;50.930;5.406;2023-06-22T08:57:26;25.70;99.90
69901;DHT22;57183;50.930;5.406;2023-06-22T08:59:52;25.70;99.90
69901;DHT22;57183;50.930;5.406;2023-06-22T09:02:19;25.50;99.90
69901;DHT22;57183;50.930;5.406;2023-06-22T09:04:46;25.30;99.90
69901;DHT22;57183;50.930;5.406;2023-06-22T09:07:11;25.20;99.90
69901;DHT22;57183;50.930;5.406;2023-06-22T09:09:37;25.30;99.90
69901;DHT22;57183;50.930;5.406;2023-06-22T09:12:04;25.30;99.90
69901;DHT22;57183;50.930;5.406;2023-06-22T09:14:30;25.40;99.90
69901;DHT22;57183;50.930;5.406;2023-06-22T09:16:55;25.30;99.90
69901;DHT22;57183;50.930;5.406;2023-06-22T09:19:21;25.30;99.90
69901;DHT22;57183;50.930;5.406;2023-06-22T09:21:47;25.50;99.90
69901;DHT22;57183;50.930;5.406;2023-06-22T09:24:12;25.70;99.90
69901;DHT22;57183;50.930;5.406;2023-06-22T09:26:39;25.80;99.90
69901;DHT22;57183;50.930;5.406;2023-06-22T09:29:05;25.60;99.90
69901;DHT22;57183;50.930;5.406;2023-06-22T09:31:31;25.60;99.90
69901;DHT22;57183;50.930;5.406;2023-06-22T09:33:57;25.70;99.90
69901;DHT22;57183;50.930;5.406;2023-06-22T09:36:23;25.80;99.90
69901;DHT22;57183;50.930;5.406;2023-06-22T09:38:49;25.80;99.90
69901;DHT22;57183;50.930;5.406;2023-06-22T09:41:22;25.70;99.90
69901;DHT22;57183;50.930;5.406;2023-06-22T09:43:48;25.70;99.90
69901;DHT22;57183;50.930;5.406;2023-06-22T09:46:17;25.60;99.90
69901;DHT22;57183;50.930;5.406;2023-06-22T09:48:43;25.50;99.90
69901;DHT22;57183;50.930;5.406;2023-06-22T09:51:08;25.50;99.90
69901;DHT22;57183;50.930;5.406;2023-06-22T09:53:34;25.50;99.90
69901;DHT22;57183;50.930;5.406;2023-06-22T09:56:01;25.30;99.90
69901;DHT22;57183;50.930;5.406;2023-06-22T09:58:27;24.90;99.90
69901;DHT22;57183;50.930;5.406;2023-06-22T10:00:53;24.60;99.90
69901;DHT22;57183;50.930;5.406;2023-06-22T10:03:20;24.20;99.90
69901;DHT22;57183;50.930;5.406;2023-06-22T10:05:45;23.90;99.90
69901;DHT22;57183;50.930;5.406;2023-06-22T10:08:11;23.70;99.90
69901;DHT22;57183;50.930;5.406;2023-06-22T10:10:37;23.50;99.90
69901;DHT22;57183;50.930;5.406;2023-06-22T10:13:08;23.20;99.90
69901;DHT22;57183;50.930;5.406;2023-06-22T10:15:37;23.10;99.90
69901;DHT22;57183;50.930;5.406;2023-06-22T10:18:03;22.90;99.90
69901;DHT22;57183;50.930;5.406;2023-06-22T10:20:28;22.80;99.90
69901;DHT22;57183;50.930;5.406;2023-06-22T10:22:54;22.60;99.90
69901;DHT22;57183;50.930;5.406;2023-06-22T10:25:21;22.60;99.90
69901;DHT22;57183;50.930;5.406;2023-06-22T10:27:47;22.50;99.90
69901;DHT22;57183;50.930;5.406;2023-06-22T10:30:13;22.30;99.90
69901;DHT22;57183;50.930;5.406;2023-06-22T10:32:39;22.20;99.90
69901;DHT22;57183;50.930;5.406;2023-06-22T10:35:06;21.90;99.90
69901;DHT22;57183;50.930;5.406;2023-06-22T10:37:32;21.90;99.90
69901;DHT22;57183;50.930;5.406;2023-06-22T10:39:58;21.80;99.90
69901;DHT22;57183;50.930;5.406;2023-06-22T10:42:23;21.70;99.90
69901;DHT22;57183;50.930;5.406;2023-06-22T10:44:49;21.80;99.90
69901;DHT22;57183;50.930;5.406;2023-06-22T10:47:15;21.80;99.90
69901;DHT22;57183;50.930;5.406;2023-06-22T10:49:41;21.80;99.90
69901;DHT22;57183;50.930;5.406;2023-06-22T10:52:08;21.70;99.90
69901;DHT22;57183;50.930;5.406;2023-06-22T10:54:34;21.80;99.90
69901;DHT22;57183;50.930;5.406;2023-06-22T10:57:01;21.90;99.90
69901;DHT22;57183;50.930;5.406;2023-06-22T10:59:27;21.80;99.90
69901;DHT22;57183;50.930;5.406;2023-06-22T11:01:54;21.60;99.90
69901;DHT22;57183;50.930;5.406;2023-06-22T11:04:20;21.60;99.90
69901;DHT22;57183;50.930;5.406;2023-06-22T11:06:47;21.60;99.90
69901;DHT22;57183;50.930;5.406;2023-06-22T11:09:13;21.50;99.90
69901;DHT22;57183;50.930;5.406;2023-06-22T11:11:44;21.50;99.90
69901;DHT22;57183;50.930;5.406;2023-06-22T11:14:09;21.50;99.90
69901;DHT22;57183;50.930;5.406;2023-06-22T11:16:35;21.40;99.90
69901;DHT22;57183;50.930;5.406;2023-06-22T11:19:00;21.50;99.90
69901;DHT22;57183;50.930;5.406;2023-06-22T11:21:26;21.70;99.90
69901;DHT22;57183;50.930;5.406;2023-06-22T11:23:52;22.00;99.90
69901;DHT22;57183;50.930;5.406;2023-06-22T11:26:17;22.20;99.90
69901;DHT22;57183;50.930;5.406;2023-06-22T11:28:43;22.50;99.90
69901;DHT22;57183;50.930;5.406;2023-06-22T11:31:09;22.90;99.90
69901;DHT22;57183;50.930;5.406;2023-06-22T11:33:34;23.20;99.90
69901;DHT22;57183;50.930;5.406;2023-06-22T11:36:00;23.30;99.90
69901;DHT22;57183;50.930;5.406;2023-06-22T11:38:26;23.30;99.90
69901;DHT22;57183;50.930;5.406;2023-06-22T11:40:51;23.50;99.90
69901;DHT22;57183;50.930;5.406;2023-06-22T11:43:17;23.70;99.90
69901;DHT22;57183;50.930;5.406;2023-06-22T11:45:42;23.80;99.90
69901;DHT22;57183;50.930;5.406;2023-06-22T11:48:08;23.90;99.90
69901;DHT22;57183;50.930;5.406;2023-06-22T11:50:34;23.80;99.90
69901;DHT22;57183;50.930;5.406;2023-06-22T11:53:02;23.60;99.90
69901;DHT22;57183;50.930;5.406;2023-06-22T11:55:28;23.30;99.90
69901;DHT22;57183;50.930;5.406;2023-06-22T11:57:55;23.30;99.90
69901;DHT22;57183;50.930;5.406;2023-06-22T12:00:22;23.10;99.90
69901;DHT22;57183;50.930;5.406;2023-06-22T12:02:50;22.90;99.90
69901;DHT22;57183;50.930;5.406;2023-06-22T12:05:19;22.70;99.90
69901;DHT22;57183;50.930;5.406;2023-06-22T12:07:49;22.50;99.90
69901;DHT22;57183;50.930;5.406;2023-06-22T12:10:15;22.30;99.90
69901;DHT22;57183;50.930;5.406;2023-06-22T12:12:42;22.20;99.90
69901;DHT22;57183;50.930;5.406;2023-06-22T12:15:09;22.10;99.90
69901;DHT22;57183;50.930;5.406;2023-06-22T12:17:35;22.00;99.90
69901;DHT22;57183;50.930;5.406;2023-06-22T12:20:01;21.80;99.90
69901;DHT22;57183;50.930;5.406;2023-06-22T12:22:27;21.70;99.90
69901;DHT22;57183;50.930;5.406;2023-06-22T12:24:53;21.60;99.90
69901;DHT22;57183;50.930;5.406;2023-06-22T12:27:18;21.70;99.90
69901;DHT22;57183;50.930;5.406;2023-06-22T12:29:47;21.60;99.90
69901;DHT22;57183;50.930;5.406;2023-06-22T12:32:13;21.70;99.90
69901;DHT22;57183;50.930;5.406;2023-06-22T12:34:40;21.60;99.90
69901;DHT22;57183;50.930;5.406;2023-06-22T12:37:06;21.40;99.90
69901;DHT22;57183;50.930;5.406;2023-06-22T12:39:32;21.40;99.90
69901;DHT22;57183;50.930;5.406;2023-06-22T12:41:58;21.40;99.90
69901;DHT22;57183;50.930;5.406;2023-06-22T12:44:24;21.40;99.90
69901;DHT22;57183;50.930;5.406;2023-06-22T12:46:49;21.50;99.90
69901;DHT22;57183;50.930;5.406;2023-06-22T12:49:15;21.50;99.90
69901;DHT22;57183;50.930;5.406;2023-06-22T12:51:42;21.40;99.90
69901;DHT22;57183;50.930;5.406;2023-06-22T12:54:08;21.30;99.90
69901;DHT22;57183;50.930;5.406;2023-06-22T12:56:34;21.30;99.90
69901;DHT22;57183;50.930;5.406;2023-06-22T12:59:00;21.20;99.90
69901;DHT22;57183;50.930;5.406;2023-06-22T13:01:28;21.30;99.90
69901;DHT22;57183;50.930;5.406;2023-06-22T13:03:56;21.20;99.90
69901;DHT22;57183;50.930;5.406;2023-06-22T13:06:21;21.20;99.90
69901;DHT22;57183;50.930;5.406;2023-06-22T13:08:47;21.00;99.90
69901;DHT22;57183;50.930;5.406;2023-06-22T13:11:13;20.90;99.90
69901;DHT22;57183;50.930;5.406;2023-06-22T13:13:39;20.80;99.90
69901;DHT22;57183;50.930;5.406;2023-06-22T13:16:05;20.90;99.90
69901;DHT22;57183;50.930;5.406;2023-06-22T13:18:31;20.80;99.90
69901;DHT22;57183;50.930;5.406;2023-06-22T13:20:57;20.70;99.90
69901;DHT22;57183;50.930;5.406;2023-06-22T13:23:23;20.60;99.90
69901;DHT22;57183;50.930;5.406;2023-06-22T13:25:49;20.50;99.90
69901;DHT22;57183;50.930;5.406;2023-06-22T13:28:15;20.50;99.90
69901;DHT22;57183;50.930;5.406;2023-06-22T13:30:42;20.40;99.90
69901;DHT22;57183;50.930;5.406;2023-06-22T13:33:11;20.30;99.90
69901;DHT22;57183;50.930;5.406;2023-06-22T13:35:36;20.30;99.90
69901;DHT22;57183;50.930;5.406;2023-06-22T13:38:03;20.30;99.90
69901;DHT22;57183;50.930;5.406;2023-06-22T13:40:29;20.20;99.90
69901;DHT22;57183;50.930;5.406;2023-06-22T13:42:55;20.10;99.90
69901;DHT22;57183;50.930;5.406;2023-06-22T13:45:21;20.00;99.90
69901;DHT22;57183;50.930;5.406;2023-06-22T13:47:46;20.00;99.90
69901;DHT22;57183;50.930;5.406;2023-06-22T13:50:12;20.10;99.90
69901;DHT22;57183;50.930;5.406;2023-06-22T13:52:38;20.10;99.90
69901;DHT22;57183;50.930;5.406;2023-06-22T13:55:05;20.10;99.90
69901;DHT22;57183;50.930;5.406;2023-06-22T13:57:32;20.00;99.90
69901;DHT22;57183;50.930;5.406;2023-06-22T13:59:58;20.00;99.90
69901;DHT22;57183;50.930;5.406;2023-06-22T14:02:23;19.80;99.90
69901;DHT22;57183;50.930;5.406;2023-06-22T14:04:49;19.70;99.90
69901;DHT22;57183;50.930;5.406;2023-06-22T14:07:15;19.70;99.90
69901;DHT22;57183;50.930;5.406;2023-06-22T14:09:40;19.60;99.90
69901;DHT22;57183;50.930;5.406;2023-06-22T14:12:07;19.60;99.90
69901;DHT22;57183;50.930;5.406;2023-06-22T14:14:33;19.50;99.90
69901;DHT22;57183;50.930;5.406;2023-06-22T14:16:59;19.40;99.90
69901;DHT22;57183;50.930;5.406;2023-06-22T14:19:25;19.40;99.90
69901;DHT22;57183;50.930;5.406;2023-06-22T14:21:50;19.30;99.90
69901;DHT22;57183;50.930;5.406;2023-06-22T14:24:16;19.30;99.90
69901;DHT22;57183;50.930;5.406;2023-06-22T14:26:42;19.30;99.90
69901;DHT22;57183;50.930;5.406;2023-06-22T14:29:08;19.20;99.90
69901;DHT22;57183;50.930;5.406;2023-06-22T14:31:33;19.20;99.90
69901;DHT22;57183;50.930;5.406;2023-06-22T14:34:00;19.10;99.90
69901;DHT22;57183;50.930;5.406;2023-06-22T14:36:28;19.10;99.90
69901;DHT22;57183;50.930;5.406;2023-06-22T14:38:53;19.00;99.90
69901;DHT22;57183;50.930;5.406;2023-06-22T14:41:19;19.00;99.90
69901;DHT22;57183;50.930;5.406;2023-06-22T14:43:46;19.00;99.90
69901;DHT22;57183;50.930;5.406;2023-06-22T14:46:12;19.00;99.90
69901;DHT22;57183;50.930;5.406;2023-06-22T14:48:38;18.90;99.90
69901;DHT22;57183;50.930;5.406;2023-06-22T14:51:04;18.90;99.90
69901;DHT22;57183;50.930;5.406;2023-06-22T14:53:29;18.80;99.90
69901;DHT22;57183;50.930;5.406;2023-06-22T14:55:55;18.70;99.90
69901;DHT22;57183;50.930;5.406;2023-06-22T14:58:21;18.60;99.90
69901;DHT22;57183;50.930;5.406;2023-06-22T15:00:47;18.70;99.90
69901;DHT22;57183;50.930;5.406;2023-06-22T15:03:12;18.70;99.90
69901;DHT22;57183;50.930;5.406;2023-06-22T15:05:43;18.70;99.90
69901;DHT22;57183;50.930;5.406;2023-06-22T15:08:09;18.60;99.90
69901;DHT22;57183;50.930;5.406;2023-06-22T15:10:34;18.60;99.90
69901;DHT22;57183;50.930;5.406;2023-06-22T15:13:00;18.50;99.90
69901;DHT22;57183;50.930;5.406;2023-06-22T15:15:26;18.50;99.90
69901;DHT22;57183;50.930;5.406;2023-06-22T15:17:52;18.50;99.90
69901;DHT22;57183;50.930;5.406;2023-06-22T15:20:18;18.60;99.90
69901;DHT22;57183;50.930;5.406;2023-06-22T15:22:43;18.60;99.90
69901;DHT22;57183;50.930;5.406;2023-06-22T15:25:09;18.60;99.90
69901;DHT22;57183;50.930;5.406;2023-06-22T15:27:35;18.60;99.90
69901;DHT22;57183;50.930;5.406;2023-06-22T15:30:01;18.60;99.90
69901;DHT22;57183;50.930;5.406;2023-06-22T15:32:29;18.60;99.90
69901;DHT22;57183;50.930;5.406;2023-06-22T15:34:55;18.70;99.90